sensor_id;sensor_type;location;lat;lon;timestamp;P1;durP1;ratioP1;P2;durP2;ratioP2
30553;SDS011;17335;50.720;7.452;2023-04-06T00:02:15;10.88;;;5.40;;
30553;SDS011;17335;50.720;7.452;2023-04-06T00:04:42;11.48;;;4.78;;
30553;SDS011;17335;50.720;7.452;2023-04-06T00:07:08;11.85;;;5.10;;
30553;SDS011;17335;50.720;7.452;2023-04-06T00:09:34;8.82;;;4.93;;
30553;SDS011;17335;50.720;7.452;2023-04-06T00:12:01;13.20;;;5.38;;
30553;SDS011;17335;50.720;7.452;2023-04-06T00:14:28;12.63;;;5.03;;
30553;SDS011;17335;50.720;7.452;2023-04-06T00:16:55;11.48;;;4.75;;
30553;SDS011;17335;50.720;7.452;2023-04-06T00:19:22;11.68;;;5.85;;
30553;SDS011;17335;50.720;7.452;2023-04-06T00:21:48;11.10;;;5.55;;
30553;SDS011;17335;50.720;7.452;2023-04-06T00:24:15;11.00;;;5.25;;
30553;SDS011;17335;50.720;7.452;2023-04-06T00:26:41;11.15;;;5.72;;
30553;SDS011;17335;50.720;7.452;2023-04-06T00:29:08;10.57;;;5.55;;
30553;SDS011;17335;50.720;7.452;2023-04-06T00:31:35;12.65;;;5.43;;
30553;SDS011;17335;50.720;7.452;2023-04-06T00:34:02;11.00;;;5.28;;
30553;SDS011;17335;50.720;7.452;2023-04-06T00:36:28;11.55;;;5.22;;
30553;SDS011;17335;50.720;7.452;2023-04-06T00:38:56;11.27;;;5.22;;
30553;SDS011;17335;50.720;7.452;2023-04-06T00:41:22;13.27;;;5.65;;
30553;SDS011;17335;50.720;7.452;2023-04-06T00:43:49;12.07;;;5.90;;
30553;SDS011;17335;50.720;7.452;2023-04-06T00:46:16;9.88;;;5.10;;
30553;SDS011;17335;50.720;7.452;2023-04-06T00:48:43;16.02;;;5.90;;
30553;SDS011;17335;50.720;7.452;2023-04-06T00:51:09;10.43;;;5.38;;
30553;SDS011;17335;50.720;7.452;2023-04-06T00:53:36;10.48;;;5.47;;
30553;SDS011;17335;50.720;7.452;2023-04-06T00:56:02;14.25;;;5.72;;
30553;SDS011;17335;50.720;7.452;2023-04-06T00:58:29;11.75;;;5.88;;
30553;SDS011;17335;50.720;7.452;2023-04-06T01:00:56;10.88;;;5.90;;
30553;SDS011;17335;50.720;7.452;2023-04-06T01:03:23;13.82;;;5.55;;
30553;SDS011;17335;50.720;7.452;2023-04-06T01:05:49;12.55;;;5.55;;
30553;SDS011;17335;50.720;7.452;2023-04-06T01:08:21;10.82;;;5.30;;
30553;SDS011;17335;50.720;7.452;2023-04-06T01:10:48;11.55;;;5.82;;
30553;SDS011;17335;50.720;7.452;2023-04-06T01:13:15;11.32;;;5.50;;
30553;SDS011;17335;50.720;7.452;2023-04-06T01:15:41;11.02;;;5.47;;
30553;SDS011;17335;50.720;7.452;2023-04-06T01:18:08;11.13;;;5.60;;
30553;SDS011;17335;50.720;7.452;2023-04-06T01:20:36;11.13;;;5.13;;
30553;SDS011;17335;50.720;7.452;2023-04-06T01:23:03;12.40;;;5.38;;
30553;SDS011;17335;50.720;7.452;2023-04-06T01:25:30;12.43;;;6.32;;
30553;SDS011;17335;50.720;7.452;2023-04-06T01:27:56;14.80;;;5.72;;
30553;SDS011;17335;50.720;7.452;2023-04-06T01:30:23;11.77;;;5.20;;
30553;SDS011;17335;50.720;7.452;2023-04-06T01:32:50;11.30;;;5.65;;
30553;SDS011;17335;50.720;7.452;2023-04-06T01:35:17;8.30;;;5.07;;
30553;SDS011;17335;50.720;7.452;2023-04-06T01:37:45;11.57;;;5.25;;
30553;SDS011;17335;50.720;7.452;2023-04-06T01:40:11;11.88;;;6.32;;
30553;SDS011;17335;50.720;7.452;2023-04-06T01:42:39;11.20;;;5.50;;
30553;SDS011;17335;50.720;7.452;2023-04-06T01:45:06;14.27;;;4.90;;
30553;SDS011;17335;50.720;7.452;2023-04-06T01:47:33;9.55;;;5.18;;
30553;SDS011;17335;50.720;7.452;2023-04-06T01:50:00;9.07;;;5.25;;
30553;SDS011;17335;50.720;7.452;2023-04-06T01:52:27;10.38;;;5.18;;
30553;SDS011;17335;50.720;7.452;2023-04-06T01:54:53;10.88;;;5.68;;
30553;SDS011;17335;50.720;7.452;2023-04-06T01:57:20;15.70;;;5.47;;
30553;SDS011;17335;50.720;7.452;2023-04-06T01:59:47;11.35;;;4.97;;
30553;SDS011;17335;50.720;7.452;2023-04-06T02:02:13;10.38;;;4.70;;
30553;SDS011;17335;50.720;7.452;2023-04-06T02:04:40;11.93;;;5.10;;
30553;SDS011;17335;50.720;7.452;2023-04-06T02:07:07;12.80;;;5.10;;
30553;SDS011;17335;50.720;7.452;2023-04-06T02:09:33;12.80;;;5.88;;
30553;SDS011;17335;50.720;7.452;2023-04-06T02:12:00;10.85;;;4.93;;
30553;SDS011;17335;50.720;7.452;2023-04-06T02:14:27;12.70;;;5.93;;
30553;SDS011;17335;50.720;7.452;2023-04-06T02:16:54;13.27;;;6.07;;
30553;SDS011;17335;50.720;7.452;2023-04-06T02:19:20;12.07;;;5.97;;
30553;SDS011;17335;50.720;7.452;2023-04-06T02:21:47;11.75;;;5.57;;
30553;SDS011;17335;50.720;7.452;2023-04-06T02:24:13;12.38;;;5.63;;
30553;SDS011;17335;50.720;7.452;2023-04-06T02:26:40;8.52;;;4.85;;
30553;SDS011;17335;50.720;7.452;2023-04-06T02:29:06;15.52;;;5.78;;
30553;SDS011;17335;50.720;7.452;2023-04-06T02:31:34;11.63;;;5.50;;
30553;SDS011;17335;50.720;7.452;2023-04-06T02:34:00;12.77;;;5.40;;
30553;SDS011;17335;50.720;7.452;2023-04-06T02:36:26;8.93;;;4.82;;
30553;SDS011;17335;50.720;7.452;2023-04-06T02:38:53;11.88;;;5.38;;
30553;SDS011;17335;50.720;7.452;2023-04-06T02:41:20;12.02;;;5.30;;
30553;SDS011;17335;50.720;7.452;2023-04-06T02:43:46;12.13;;;5.93;;
30553;SDS011;17335;50.720;7.452;2023-04-06T02:46:13;9.82;;;5.35;;
30553;SDS011;17335;50.720;7.452;2023-04-06T02:48:39;9.80;;;5.00;;
30553;SDS011;17335;50.720;7.452;2023-04-06T02:51:06;11.00;;;5.50;;
30553;SDS011;17335;50.720;7.452;2023-04-06T02:53:33;10.77;;;5.35;;
30553;SDS011;17335;50.720;7.452;2023-04-06T02:55:59;10.70;;;5.20;;
30553;SDS011;17335;50.720;7.452;2023-04-06T02:58:26;12.57;;;5.35;;
30553;SDS011;17335;50.720;7.452;2023-04-06T03:00:53;16.30;;;5.50;;
30553;SDS011;17335;50.720;7.452;2023-04-06T03:03:19;12.60;;;5.43;;
30553;SDS011;17335;50.720;7.452;2023-04-06T03:05:46;12.85;;;5.40;;
30553;SDS011;17335;50.720;7.452;2023-04-06T03:08:13;12.23;;;5.45;;
30553;SDS011;17335;50.720;7.452;2023-04-06T03:10:40;13.32;;;5.60;;
30553;SDS011;17335;50.720;7.452;2023-04-06T03:13:07;12.52;;;6.43;;
30553;SDS011;17335;50.720;7.452;2023-04-06T03:15:33;12.40;;;6.10;;
30553;SDS011;17335;50.720;7.452;2023-04-06T03:17:59;10.38;;;5.40;;
30553;SDS011;17335;50.720;7.452;2023-04-06T03:20:26;13.05;;;6.20;;
30553;SDS011;17335;50.720;7.452;2023-04-06T03:22:53;12.30;;;6.57;;
30553;SDS011;17335;50.720;7.452;2023-04-06T03:25:19;14.27;;;6.32;;
30553;SDS011;17335;50.720;7.452;2023-04-06T03:27:46;14.70;;;6.38;;
30553;SDS011;17335;50.720;7.452;2023-04-06T03:30:13;10.45;;;5.95;;
30553;SDS011;17335;50.720;7.452;2023-04-06T03:32:39;10.60;;;5.60;;
30553;SDS011;17335;50.720;7.452;2023-04-06T03:35:06;13.00;;;6.30;;
30553;SDS011;17335;50.720;7.452;2023-04-06T03:37:33;15.35;;;6.10;;
30553;SDS011;17335;50.720;7.452;2023-04-06T03:40:00;10.40;;;5.60;;
30553;SDS011;17335;50.720;7.452;2023-04-06T03:42:26;11.27;;;5.47;;
30553;SDS011;17335;50.720;7.452;2023-04-06T03:44:53;12.35;;;6.03;;
30553;SDS011;17335;50.720;7.452;2023-04-06T03:47:20;14.57;;;6.40;;
30553;SDS011;17335;50.720;7.452;2023-04-06T03:49:46;10.88;;;5.47;;
30553;SDS011;17335;50.720;7.452;2023-04-06T03:52:12;10.00;;;5.22;;
30553;SDS011;17335;50.720;7.452;2023-04-06T03:54:39;12.07;;;5.85;;
30553;SDS011;17335;50.720;7.452;2023-04-06T03:57:06;10.27;;;5.53;;
30553;SDS011;17335;50.720;7.452;2023-04-06T03:59:32;11.55;;;5.50;;
30553;SDS011;17335;50.720;7.452;2023-04-06T04:01:59;8.68;;;4.60;;
30553;SDS011;17335;50.720;7.452;2023-04-06T04:04:26;11.10;;;5.65;;
30553;SDS011;17335;50.720;7.452;2023-04-06T04:06:52;10.73;;;5.43;;
30553;SDS011;17335;50.720;7.452;2023-04-06T04:09:19;12.27;;;5.32;;
30553;SDS011;17335;50.720;7.452;2023-04-06T04:11:45;10.55;;;5.47;;
30553;SDS011;17335;50.720;7.452;2023-04-06T04:14:12;12.18;;;6.13;;
30553;SDS011;17335;50.720;7.452;2023-04-06T04:16:39;12.82;;;6.10;;
30553;SDS011;17335;50.720;7.452;2023-04-06T04:19:06;13.63;;;5.75;;
30553;SDS011;17335;50.720;7.452;2023-04-06T04:21:33;9.55;;;5.35;;
30553;SDS011;17335;50.720;7.452;2023-04-06T04:23:59;12.50;;;5.90;;
30553;SDS011;17335;50.720;7.452;2023-04-06T04:26:26;9.40;;;4.88;;
30553;SDS011;17335;50.720;7.452;2023-04-06T04:28:52;10.38;;;5.10;;
30553;SDS011;17335;50.720;7.452;2023-04-06T04:31:18;12.27;;;6.07;;
30553;SDS011;17335;50.720;7.452;2023-04-06T04:33:46;11.30;;;5.20;;
30553;SDS011;17335;50.720;7.452;2023-04-06T04:36:12;9.63;;;4.95;;
30553;SDS011;17335;50.720;7.452;2023-04-06T04:38:39;11.05;;;5.43;;
30553;SDS011;17335;50.720;7.452;2023-04-06T04:41:06;11.60;;;5.70;;
30553;SDS011;17335;50.720;7.452;2023-04-06T04:43:32;9.40;;;5.38;;
30553;SDS011;17335;50.720;7.452;2023-04-06T04:45:59;11.43;;;5.68;;
30553;SDS011;17335;50.720;7.452;2023-04-06T04:48:25;9.90;;;5.35;;
30553;SDS011;17335;50.720;7.452;2023-04-06T04:50:52;11.25;;;5.45;;
30553;SDS011;17335;50.720;7.452;2023-04-06T04:53:19;12.23;;;6.13;;
30553;SDS011;17335;50.720;7.452;2023-04-06T04:55:45;10.95;;;5.35;;
30553;SDS011;17335;50.720;7.452;2023-04-06T04:58:12;11.02;;;5.50;;
30553;SDS011;17335;50.720;7.452;2023-04-06T05:00:42;9.85;;;5.28;;
30553;SDS011;17335;50.720;7.452;2023-04-06T05:03:10;14.23;;;5.50;;
30553;SDS011;17335;50.720;7.452;2023-04-06T05:05:44;12.07;;;5.13;;
30553;SDS011;17335;50.720;7.452;2023-04-06T05:08:11;11.52;;;5.00;;
30553;SDS011;17335;50.720;7.452;2023-04-06T05:10:38;11.35;;;5.30;;
30553;SDS011;17335;50.720;7.452;2023-04-06T05:13:05;10.77;;;4.85;;
30553;SDS011;17335;50.720;7.452;2023-04-06T05:15:32;14.15;;;5.60;;
30553;SDS011;17335;50.720;7.452;2023-04-06T05:18:01;14.35;;;5.88;;
30553;SDS011;17335;50.720;7.452;2023-04-06T05:20:27;13.63;;;5.40;;
30553;SDS011;17335;50.720;7.452;2023-04-06T05:22:54;13.90;;;5.00;;
30553;SDS011;17335;50.720;7.452;2023-04-06T05:25:20;10.88;;;5.20;;
30553;SDS011;17335;50.720;7.452;2023-04-06T05:27:47;9.98;;;4.90;;
30553;SDS011;17335;50.720;7.452;2023-04-06T05:30:14;10.70;;;5.18;;
30553;SDS011;17335;50.720;7.452;2023-04-06T05:32:40;8.73;;;4.82;;
30553;SDS011;17335;50.720;7.452;2023-04-06T05:35:08;16.30;;;5.30;;
30553;SDS011;17335;50.720;7.452;2023-04-06T05:37:35;13.80;;;5.55;;
30553;SDS011;17335;50.720;7.452;2023-04-06T05:40:02;15.13;;;5.13;;
30553;SDS011;17335;50.720;7.452;2023-04-06T05:42:36;12.32;;;5.38;;
30553;SDS011;17335;50.720;7.452;2023-04-06T05:45:06;11.05;;;5.18;;
30553;SDS011;17335;50.720;7.452;2023-04-06T05:47:33;12.98;;;5.72;;
30553;SDS011;17335;50.720;7.452;2023-04-06T05:49:59;13.20;;;5.50;;
30553;SDS011;17335;50.720;7.452;2023-04-06T05:52:26;9.88;;;4.97;;
30553;SDS011;17335;50.720;7.452;2023-04-06T05:54:53;10.13;;;5.28;;
30553;SDS011;17335;50.720;7.452;2023-04-06T05:57:20;11.88;;;5.28;;
30553;SDS011;17335;50.720;7.452;2023-04-06T05:59:46;12.57;;;5.38;;
30553;SDS011;17335;50.720;7.452;2023-04-06T06:02:13;9.75;;;4.63;;
30553;SDS011;17335;50.720;7.452;2023-04-06T06:04:40;10.98;;;5.10;;
30553;SDS011;17335;50.720;7.452;2023-04-06T06:07:06;10.27;;;5.13;;
30553;SDS011;17335;50.720;7.452;2023-04-06T06:09:34;9.18;;;4.57;;
30553;SDS011;17335;50.720;7.452;2023-04-06T06:12:00;17.20;;;4.90;;
30553;SDS011;17335;50.720;7.452;2023-04-06T06:14:26;15.93;;;5.43;;
30553;SDS011;17335;50.720;7.452;2023-04-06T06:16:56;11.10;;;5.03;;
30553;SDS011;17335;50.720;7.452;2023-04-06T06:19:23;11.35;;;4.85;;
30553;SDS011;17335;50.720;7.452;2023-04-06T06:21:49;10.52;;;5.15;;
30553;SDS011;17335;50.720;7.452;2023-04-06T06:24:16;14.15;;;5.32;;
30553;SDS011;17335;50.720;7.452;2023-04-06T06:26:43;11.43;;;5.07;;
30553;SDS011;17335;50.720;7.452;2023-04-06T06:29:09;11.23;;;5.22;;
30553;SDS011;17335;50.720;7.452;2023-04-06T06:31:36;14.00;;;4.85;;
30553;SDS011;17335;50.720;7.452;2023-04-06T06:34:03;10.55;;;4.88;;
30553;SDS011;17335;50.720;7.452;2023-04-06T06:36:30;8.32;;;4.45;;
30553;SDS011;17335;50.720;7.452;2023-04-06T06:38:57;11.77;;;4.95;;
30553;SDS011;17335;50.720;7.452;2023-04-06T06:41:25;14.85;;;5.03;;
30553;SDS011;17335;50.720;7.452;2023-04-06T06:43:52;9.63;;;4.72;;
30553;SDS011;17335;50.720;7.452;2023-04-06T06:46:18;15.18;;;5.35;;
30553;SDS011;17335;50.720;7.452;2023-04-06T06:48:45;10.07;;;4.97;;
30553;SDS011;17335;50.720;7.452;2023-04-06T06:51:11;11.88;;;5.30;;
30553;SDS011;17335;50.720;7.452;2023-04-06T06:53:38;11.27;;;5.03;;
30553;SDS011;17335;50.720;7.452;2023-04-06T06:56:04;9.20;;;4.68;;
30553;SDS011;17335;50.720;7.452;2023-04-06T06:58:31;11.40;;;5.32;;
30553;SDS011;17335;50.720;7.452;2023-04-06T07:00:57;13.00;;;5.95;;
30553;SDS011;17335;50.720;7.452;2023-04-06T07:03:25;8.95;;;4.88;;
30553;SDS011;17335;50.720;7.452;2023-04-06T07:05:52;16.65;;;6.38;;
30553;SDS011;17335;50.720;7.452;2023-04-06T07:08:22;9.95;;;4.88;;
30553;SDS011;17335;50.720;7.452;2023-04-06T07:10:50;17.67;;;5.40;;
30553;SDS011;17335;50.720;7.452;2023-04-06T07:13:24;12.65;;;5.53;;
30553;SDS011;17335;50.720;7.452;2023-04-06T07:15:53;12.18;;;5.05;;
30553;SDS011;17335;50.720;7.452;2023-04-06T07:18:20;12.10;;;5.18;;
30553;SDS011;17335;50.720;7.452;2023-04-06T07:20:47;14.13;;;5.10;;
30553;SDS011;17335;50.720;7.452;2023-04-06T07:23:13;14.05;;;5.60;;
30553;SDS011;17335;50.720;7.452;2023-04-06T07:25:40;10.60;;;5.63;;
30553;SDS011;17335;50.720;7.452;2023-04-06T07:28:06;12.88;;;5.50;;
30553;SDS011;17335;50.720;7.452;2023-04-06T07:30:33;10.82;;;5.25;;
30553;SDS011;17335;50.720;7.452;2023-04-06T07:33:02;10.95;;;5.45;;
30553;SDS011;17335;50.720;7.452;2023-04-06T07:35:28;9.82;;;4.90;;
30553;SDS011;17335;50.720;7.452;2023-04-06T07:37:56;13.07;;;5.32;;
30553;SDS011;17335;50.720;7.452;2023-04-06T07:40:23;12.57;;;5.53;;
30553;SDS011;17335;50.720;7.452;2023-04-06T07:42:49;14.90;;;5.50;;
30553;SDS011;17335;50.720;7.452;2023-04-06T07:45:16;10.30;;;5.40;;
30553;SDS011;17335;50.720;7.452;2023-04-06T07:47:42;12.68;;;6.20;;
30553;SDS011;17335;50.720;7.452;2023-04-06T07:50:09;16.98;;;6.10;;
30553;SDS011;17335;50.720;7.452;2023-04-06T07:52:36;10.95;;;5.93;;
30553;SDS011;17335;50.720;7.452;2023-04-06T07:55:03;15.23;;;5.88;;
30553;SDS011;17335;50.720;7.452;2023-04-06T07:57:31;12.88;;;5.88;;
30553;SDS011;17335;50.720;7.452;2023-04-06T07:59:57;14.02;;;6.43;;
30553;SDS011;17335;50.720;7.452;2023-04-06T08:02:24;16.50;;;6.53;;
30553;SDS011;17335;50.720;7.452;2023-04-06T08:04:50;14.25;;;6.43;;
30553;SDS011;17335;50.720;7.452;2023-04-06T08:07:17;12.40;;;6.18;;
30553;SDS011;17335;50.720;7.452;2023-04-06T08:09:44;13.50;;;6.80;;
30553;SDS011;17335;50.720;7.452;2023-04-06T08:12:10;13.88;;;6.28;;
30553;SDS011;17335;50.720;7.452;2023-04-06T08:14:37;14.25;;;6.30;;
30553;SDS011;17335;50.720;7.452;2023-04-06T08:17:03;16.05;;;6.25;;
30553;SDS011;17335;50.720;7.452;2023-04-06T08:19:31;13.45;;;6.25;;
30553;SDS011;17335;50.720;7.452;2023-04-06T08:21:58;14.85;;;6.20;;
30553;SDS011;17335;50.720;7.452;2023-04-06T08:24:24;17.85;;;7.38;;
30553;SDS011;17335;50.720;7.452;2023-04-06T08:26:52;14.10;;;6.25;;
30553;SDS011;17335;50.720;7.452;2023-04-06T08:29:19;15.35;;;6.53;;
30553;SDS011;17335;50.720;7.452;2023-04-06T08:31:45;13.07;;;6.15;;
30553;SDS011;17335;50.720;7.452;2023-04-06T08:34:12;16.33;;;7.57;;
30553;SDS011;17335;50.720;7.452;2023-04-06T08:36:40;16.27;;;6.75;;
30553;SDS011;17335;50.720;7.452;2023-04-06T08:39:07;18.50;;;7.53;;
30553;SDS011;17335;50.720;7.452;2023-04-06T08:41:34;11.55;;;5.93;;
30553;SDS011;17335;50.720;7.452;2023-04-06T08:44:01;13.13;;;5.90;;
30553;SDS011;17335;50.720;7.452;2023-04-06T08:46:28;12.10;;;6.55;;
30553;SDS011;17335;50.720;7.452;2023-04-06T08:49:00;16.25;;;6.45;;
30553;SDS011;17335;50.720;7.452;2023-04-06T08:51:28;15.73;;;6.45;;
30553;SDS011;17335;50.720;7.452;2023-04-06T08:53:57;13.82;;;6.18;;
30553;SDS011;17335;50.720;7.452;2023-04-06T08:56:26;15.20;;;6.80;;
30553;SDS011;17335;50.720;7.452;2023-04-06T08:58:54;16.23;;;6.95;;
30553;SDS011;17335;50.720;7.452;2023-04-06T09:01:28;18.42;;;7.00;;
30553;SDS011;17335;50.720;7.452;2023-04-06T09:03:56;17.95;;;6.93;;
30553;SDS011;17335;50.720;7.452;2023-04-06T09:06:24;15.27;;;6.60;;
30553;SDS011;17335;50.720;7.452;2023-04-06T09:08:53;15.27;;;6.78;;
30553;SDS011;17335;50.720;7.452;2023-04-06T09:11:19;14.55;;;6.53;;
30553;SDS011;17335;50.720;7.452;2023-04-06T09:13:50;14.70;;;6.82;;
30553;SDS011;17335;50.720;7.452;2023-04-06T09:16:18;14.63;;;6.10;;
30553;SDS011;17335;50.720;7.452;2023-04-06T09:18:46;16.25;;;7.22;;
30553;SDS011;17335;50.720;7.452;2023-04-06T09:21:16;17.38;;;7.03;;
30553;SDS011;17335;50.720;7.452;2023-04-06T09:23:44;15.40;;;7.25;;
30553;SDS011;17335;50.720;7.452;2023-04-06T09:26:12;18.15;;;6.45;;
30553;SDS011;17335;50.720;7.452;2023-04-06T09:33:54;15.65;;;6.72;;
30553;SDS011;17335;50.720;7.452;2023-04-06T09:36:35;15.93;;;6.53;;
30553;SDS011;17335;50.720;7.452;2023-04-06T09:39:06;22.02;;;7.55;;
30553;SDS011;17335;50.720;7.452;2023-04-06T09:41:34;17.02;;;6.65;;
30553;SDS011;17335;50.720;7.452;2023-04-06T09:44:05;19.20;;;7.78;;
30553;SDS011;17335;50.720;7.452;2023-04-06T09:49:23;16.35;;;6.75;;
30553;SDS011;17335;50.720;7.452;2023-04-06T09:51:57;18.35;;;7.10;;
30553;SDS011;17335;50.720;7.452;2023-04-06T09:54:27;21.50;;;7.50;;
30553;SDS011;17335;50.720;7.452;2023-04-06T09:57:15;18.88;;;7.28;;
30553;SDS011;17335;50.720;7.452;2023-04-06T10:00:04;19.63;;;7.55;;
30553;SDS011;17335;50.720;7.452;2023-04-06T10:08:21;17.60;;;7.07;;
30553;SDS011;17335;50.720;7.452;2023-04-06T10:10:50;14.35;;;6.80;;
30553;SDS011;17335;50.720;7.452;2023-04-06T10:13:17;20.88;;;7.18;;
30553;SDS011;17335;50.720;7.452;2023-04-06T10:15:45;20.38;;;6.72;;
30553;SDS011;17335;50.720;7.452;2023-04-06T10:18:12;17.98;;;7.78;;
30553;SDS011;17335;50.720;7.452;2023-04-06T10:25:54;16.55;;;7.25;;
30553;SDS011;17335;50.720;7.452;2023-04-06T10:28:30;19.95;;;7.60;;
30553;SDS011;17335;50.720;7.452;2023-04-06T10:31:05;17.60;;;7.25;;
30553;SDS011;17335;50.720;7.452;2023-04-06T10:33:32;18.88;;;7.10;;
30553;SDS011;17335;50.720;7.452;2023-04-06T10:36:09;17.58;;;7.00;;
30553;SDS011;17335;50.720;7.452;2023-04-06T10:38:56;18.98;;;7.95;;
30553;SDS011;17335;50.720;7.452;2023-04-06T10:41:41;18.02;;;7.53;;
30553;SDS011;17335;50.720;7.452;2023-04-06T10:44:16;18.63;;;7.32;;
30553;SDS011;17335;50.720;7.452;2023-04-06T10:46:56;15.43;;;7.30;;
30553;SDS011;17335;50.720;7.452;2023-04-06T10:49:26;14.52;;;6.38;;
30553;SDS011;17335;50.720;7.452;2023-04-06T10:51:53;20.60;;;7.68;;
30553;SDS011;17335;50.720;7.452;2023-04-06T10:54:21;18.20;;;7.72;;
30553;SDS011;17335;50.720;7.452;2023-04-06T10:56:49;17.77;;;8.65;;
30553;SDS011;17335;50.720;7.452;2023-04-06T10:59:19;17.15;;;7.80;;
30553;SDS011;17335;50.720;7.452;2023-04-06T11:01:47;16.98;;;8.07;;
30553;SDS011;17335;50.720;7.452;2023-04-06T11:04:15;17.10;;;7.53;;
30553;SDS011;17335;50.720;7.452;2023-04-06T11:06:47;15.50;;;7.10;;
30553;SDS011;17335;50.720;7.452;2023-04-06T11:09:28;18.75;;;7.22;;
30553;SDS011;17335;50.720;7.452;2023-04-06T11:11:56;19.58;;;7.57;;
30553;SDS011;17335;50.720;7.452;2023-04-06T11:14:23;18.25;;;7.60;;
30553;SDS011;17335;50.720;7.452;2023-04-06T11:16:49;17.58;;;7.63;;
30553;SDS011;17335;50.720;7.452;2023-04-06T11:19:16;17.85;;;7.57;;
30553;SDS011;17335;50.720;7.452;2023-04-06T11:21:44;18.80;;;8.20;;
30553;SDS011;17335;50.720;7.452;2023-04-06T11:24:22;18.75;;;7.60;;
30553;SDS011;17335;50.720;7.452;2023-04-06T11:26:54;21.30;;;7.88;;
30553;SDS011;17335;50.720;7.452;2023-04-06T11:29:23;18.10;;;7.95;;
30553;SDS011;17335;50.720;7.452;2023-04-06T11:31:53;14.50;;;6.80;;
30553;SDS011;17335;50.720;7.452;2023-04-06T11:34:24;20.23;;;7.65;;
30553;SDS011;17335;50.720;7.452;2023-04-06T11:36:54;17.70;;;7.00;;
30553;SDS011;17335;50.720;7.452;2023-04-06T11:39:23;15.77;;;7.18;;
30553;SDS011;17335;50.720;7.452;2023-04-06T11:41:58;17.58;;;7.43;;
30553;SDS011;17335;50.720;7.452;2023-04-06T11:44:36;18.33;;;7.50;;
30553;SDS011;17335;50.720;7.452;2023-04-06T11:47:07;21.38;;;7.90;;
30553;SDS011;17335;50.720;7.452;2023-04-06T11:49:38;15.82;;;7.00;;
30553;SDS011;17335;50.720;7.452;2023-04-06T11:54:43;12.63;;;6.38;;
30553;SDS011;17335;50.720;7.452;2023-04-06T11:57:10;15.48;;;6.68;;
30553;SDS011;17335;50.720;7.452;2023-04-06T11:59:37;16.10;;;6.97;;
30553;SDS011;17335;50.720;7.452;2023-04-06T12:02:03;16.58;;;6.57;;
30553;SDS011;17335;50.720;7.452;2023-04-06T12:04:30;13.07;;;6.53;;
30553;SDS011;17335;50.720;7.452;2023-04-06T12:06:57;12.40;;;6.40;;
30553;SDS011;17335;50.720;7.452;2023-04-06T12:09:24;13.25;;;5.95;;
30553;SDS011;17335;50.720;7.452;2023-04-06T12:11:51;14.18;;;6.93;;
30553;SDS011;17335;50.720;7.452;2023-04-06T12:14:17;16.50;;;7.00;;
30553;SDS011;17335;50.720;7.452;2023-04-06T12:16:44;13.20;;;6.80;;
30553;SDS011;17335;50.720;7.452;2023-04-06T12:19:11;14.40;;;6.43;;
30553;SDS011;17335;50.720;7.452;2023-04-06T12:21:37;13.50;;;6.30;;
30553;SDS011;17335;50.720;7.452;2023-04-06T12:24:04;20.50;;;6.53;;
30553;SDS011;17335;50.720;7.452;2023-04-06T12:26:31;15.68;;;6.80;;
30553;SDS011;17335;50.720;7.452;2023-04-06T12:28:59;15.82;;;6.72;;
30553;SDS011;17335;50.720;7.452;2023-04-06T12:31:35;13.07;;;6.65;;
30553;SDS011;17335;50.720;7.452;2023-04-06T12:34:04;13.18;;;5.90;;
30553;SDS011;17335;50.720;7.452;2023-04-06T12:36:31;10.88;;;5.60;;
30553;SDS011;17335;50.720;7.452;2023-04-06T12:39:00;11.98;;;5.78;;
30553;SDS011;17335;50.720;7.452;2023-04-06T12:41:27;16.95;;;6.97;;
30553;SDS011;17335;50.720;7.452;2023-04-06T12:43:54;15.15;;;6.97;;
30553;SDS011;17335;50.720;7.452;2023-04-06T12:46:21;13.00;;;6.40;;
30553;SDS011;17335;50.720;7.452;2023-04-06T12:48:50;15.98;;;6.90;;
30553;SDS011;17335;50.720;7.452;2023-04-06T12:51:19;13.13;;;6.45;;
30553;SDS011;17335;50.720;7.452;2023-04-06T12:53:47;16.20;;;6.72;;
30553;SDS011;17335;50.720;7.452;2023-04-06T12:56:14;12.98;;;6.45;;
30553;SDS011;17335;50.720;7.452;2023-04-06T12:58:47;18.25;;;7.35;;
30553;SDS011;17335;50.720;7.452;2023-04-06T13:01:13;17.42;;;7.40;;
30553;SDS011;17335;50.720;7.452;2023-04-06T13:03:40;16.00;;;6.90;;
30553;SDS011;17335;50.720;7.452;2023-04-06T13:06:08;16.17;;;7.03;;
30553;SDS011;17335;50.720;7.452;2023-04-06T13:08:35;20.20;;;7.93;;
30553;SDS011;17335;50.720;7.452;2023-04-06T13:11:04;15.95;;;7.00;;
30553;SDS011;17335;50.720;7.452;2023-04-06T13:13:34;15.80;;;7.05;;
30553;SDS011;17335;50.720;7.452;2023-04-06T13:16:02;17.45;;;7.53;;
30553;SDS011;17335;50.720;7.452;2023-04-06T13:18:30;11.23;;;5.93;;
30553;SDS011;17335;50.720;7.452;2023-04-06T13:20:58;16.55;;;6.28;;
30553;SDS011;17335;50.720;7.452;2023-04-06T13:23:28;13.57;;;6.93;;
30553;SDS011;17335;50.720;7.452;2023-04-06T13:28:26;17.52;;;7.55;;
30553;SDS011;17335;50.720;7.452;2023-04-06T13:30:54;18.20;;;7.82;;
30553;SDS011;17335;50.720;7.452;2023-04-06T13:33:21;21.75;;;7.75;;
30553;SDS011;17335;50.720;7.452;2023-04-06T13:35:48;18.75;;;7.43;;
30553;SDS011;17335;50.720;7.452;2023-04-06T13:38:14;15.88;;;6.43;;
30553;SDS011;17335;50.720;7.452;2023-04-06T13:40:42;13.25;;;5.80;;
30553;SDS011;17335;50.720;7.452;2023-04-06T13:43:10;16.85;;;7.00;;
30553;SDS011;17335;50.720;7.452;2023-04-06T13:45:37;12.20;;;6.13;;
30553;SDS011;17335;50.720;7.452;2023-04-06T13:48:04;10.90;;;5.97;;
30553;SDS011;17335;50.720;7.452;2023-04-06T13:50:32;11.75;;;6.40;;
30553;SDS011;17335;50.720;7.452;2023-04-06T13:52:59;13.45;;;6.55;;
30553;SDS011;17335;50.720;7.452;2023-04-06T13:55:25;13.95;;;5.80;;
30553;SDS011;17335;50.720;7.452;2023-04-06T13:57:52;7.63;;;4.25;;
30553;SDS011;17335;50.720;7.452;2023-04-06T14:00:18;9.88;;;4.55;;
30553;SDS011;17335;50.720;7.452;2023-04-06T14:02:45;10.57;;;4.90;;
30553;SDS011;17335;50.720;7.452;2023-04-06T14:05:12;11.82;;;4.97;;
30553;SDS011;17335;50.720;7.452;2023-04-06T14:07:38;12.13;;;5.38;;
30553;SDS011;17335;50.720;7.452;2023-04-06T14:10:05;11.90;;;5.80;;
30553;SDS011;17335;50.720;7.452;2023-04-06T14:12:43;13.40;;;6.70;;
30553;SDS011;17335;50.720;7.452;2023-04-06T14:15:11;15.40;;;6.85;;
30553;SDS011;17335;50.720;7.452;2023-04-06T14:17:38;15.13;;;6.80;;
30553;SDS011;17335;50.720;7.452;2023-04-06T14:20:05;12.88;;;6.13;;
30553;SDS011;17335;50.720;7.452;2023-04-06T14:22:32;15.35;;;6.70;;
30553;SDS011;17335;50.720;7.452;2023-04-06T14:24:59;14.18;;;6.07;;
30553;SDS011;17335;50.720;7.452;2023-04-06T14:27:25;11.63;;;5.75;;
30553;SDS011;17335;50.720;7.452;2023-04-06T14:29:53;12.95;;;5.03;;
30553;SDS011;17335;50.720;7.452;2023-04-06T14:32:20;10.27;;;4.60;;
30553;SDS011;17335;50.720;7.452;2023-04-06T14:34:47;11.65;;;4.88;;
30553;SDS011;17335;50.720;7.452;2023-04-06T14:37:13;11.25;;;5.03;;
30553;SDS011;17335;50.720;7.452;2023-04-06T14:39:41;10.18;;;4.75;;
30553;SDS011;17335;50.720;7.452;2023-04-06T14:42:07;10.95;;;4.85;;
30553;SDS011;17335;50.720;7.452;2023-04-06T14:44:33;9.65;;;4.03;;
30553;SDS011;17335;50.720;7.452;2023-04-06T14:47:03;9.45;;;4.57;;
30553;SDS011;17335;50.720;7.452;2023-04-06T14:49:32;9.80;;;4.03;;
30553;SDS011;17335;50.720;7.452;2023-04-06T14:51:59;9.95;;;4.07;;
30553;SDS011;17335;50.720;7.452;2023-04-06T14:54:26;10.93;;;4.55;;
30553;SDS011;17335;50.720;7.452;2023-04-06T14:56:52;12.00;;;4.78;;
30553;SDS011;17335;50.720;7.452;2023-04-06T14:59:19;12.10;;;4.43;;
30553;SDS011;17335;50.720;7.452;2023-04-06T15:01:46;10.32;;;4.45;;
30553;SDS011;17335;50.720;7.452;2023-04-06T15:04:13;9.70;;;4.63;;